Time;durP1;ratioP1;P1;durP2;ratioP2;P2;SDS_P1;SDS_P2;PMS_P1;PMS_P2;Temp;Humidity;BMP_temperature;BMP_pressure;BME280_temperature;BME280_humidity;BME280_pressure;Samples;Min_cycle;Max_cycle;Signal;HPM_P1;HPM_P2
2023/02/19 00:08:17;;;;;;;0.20;0.10;;;8.70;99.90;;;;;;21142966;28;20402;-67
2023/02/19 00:18:22;;;;;;;0.20;0.10;;;8.80;99.90;;;;;;21139942;28;20429;-67
2023/02/19 00:28:25;;;;;;;0.20;0.10;;;8.10;99.90;;;;;;21127577;28;20387;-67
2023/02/19 00:38:31;;;;;;;0.20;0.10;;;7.70;99.90;;;;;;21129401;28;20406;-67
2023/02/19 00:48:35;;;;;;;0.20;0.10;;;8.20;99.90;;;;;;21133008;28;20409;-68
2023/02/19 00:58:40;;;;;;;0.20;0.10;;;8.20;99.90;;;;;;21160944;28;20411;-67
2023/02/19 01:08:44;;;;;;;0.20;0.10;;;8.40;99.90;;;;;;21142077;28;20413;-67
2023/02/19 01:18:49;;;;;;;0.20;0.10;;;8.00;99.90;;;;;;21159781;28;20916;-67
2023/02/19 01:28:53;;;;;;;0.20;0.10;;;7.90;99.90;;;;;;21158765;28;20398;-68
2023/02/19 01:39:02;;;;;;;0.20;0.10;;;7.60;99.90;;;;;;21156850;28;20421;-67
2023/02/19 01:49:10;;;;;;;0.20;0.10;;;7.60;99.90;;;;;;21138044;28;20395;-67
2023/02/19 01:59:16;;;;;;;0.20;0.10;;;7.60;99.90;;;;;;21130267;28;20425;-67
2023/02/19 02:20:06;;;;;;;0.20;0.10;;;7.70;99.90;;;;;;21134411;28;20497;-68
2023/02/19 02:30:31;;;;;;;1.67;1.58;;;8.00;99.90;;;;;;21131250;28;21351;-68
2023/02/19 02:40:36;;;;;;;0.20;0.10;;;7.80;99.90;;;;;;21127403;28;20409;-68
2023/02/19 02:50:45;;;;;;;0.20;0.10;;;7.60;99.90;;;;;;21141632;28;20502;-68
2023/02/19 03:21:41;;;;;;;0.20;0.10;;;7.50;99.90;;;;;;21112450;28;20396;-68
2023/02/19 03:31:47;;;;;;;0.20;0.10;;;7.50;99.90;;;;;;21148044;28;20448;-68
2023/02/19 03:42:00;;;;;;;0.20;0.10;;;7.90;99.90;;;;;;21147967;28;20885;-68
2023/02/19 03:52:13;;;;;;;0.20;0.10;;;8.50;99.90;;;;;;21147306;28;20420;-68
2023/02/19 04:02:28;;;;;;;0.20;0.20;;;8.50;99.90;;;;;;21146486;28;20402;-68
2023/02/19 04:12:35;;;;;;;0.20;0.10;;;8.60;99.90;;;;;;21146439;28;20430;-68
2023/02/19 04:22:41;;;;;;;0.20;0.05;;;8.50;99.90;;;;;;21145201;28;20406;-68
2023/02/19 04:32:46;;;;;;;0.20;0.10;;;8.40;99.90;;;;;;21144744;28;20428;-68
2023/02/19 04:42:50;;;;;;;0.20;0.10;;;8.60;99.90;;;;;;21144449;28;20406;-68
2023/02/19 04:52:55;;;;;;;0.20;0.10;;;9.10;99.90;;;;;;21145087;28;20431;-68
2023/02/19 05:02:59;;;;;;;0.20;0.10;;;9.00;99.90;;;;;;21143472;28;21099;-68
2023/02/19 05:13:04;;;;;;;0.20;0.10;;;8.40;99.90;;;;;;21143749;28;20386;-68
2023/02/19 05:23:08;;;;;;;0.50;0.47;;;8.20;99.90;;;;;;21143100;28;20780;-68
2023/02/19 05:33:13;;;;;;;0.20;0.10;;;8.20;99.90;;;;;;21124079;28;20452;-68
2023/02/19 05:43:17;;;;;;;0.20;0.10;;;8.40;99.90;;;;;;21155068;28;20463;-68
2023/02/19 05:53:22;;;;;;;0.20;0.10;;;8.80;99.90;;;;;;21156337;28;20511;-68
2023/02/19 06:03:26;;;;;;;0.20;0.10;;;9.20;99.90;;;;;;21154889;28;20405;-67
2023/02/19 06:13:32;;;;;;;0.20;0.10;;;8.90;99.90;;;;;;21155327;28;20800;-68
2023/02/19 06:23:36;;;;;;;0.20;0.10;;;8.50;99.90;;;;;;21135630;28;20406;-67
2023/02/19 06:33:41;;;;;;;0.20;0.07;;;7.40;99.90;;;;;;21134414;28;20459;-67
2023/02/19 06:43:47;;;;;;;0.20;0.10;;;7.30;99.90;;;;;;21132764;28;20434;-67
2023/02/19 06:53:53;;;;;;;0.20;0.10;;;7.80;99.90;;;;;;21135090;28;20451;-69
2023/02/19 07:03:56;;;;;;;0.20;0.10;;;7.50;99.90;;;;;;21131569;28;20474;-67
2023/02/19 07:14:04;;;;;;;0.20;0.10;;;7.50;99.90;;;;;;21133248;28;20406;-67
2023/02/19 07:24:08;;;;;;;0.20;0.10;;;7.60;99.90;;;;;;21150329;28;20414;-68
2023/02/19 07:34:14;;;;;;;0.20;0.10;;;7.70;99.90;;;;;;21149179;28;20408;-69
2023/02/19 07:44:18;;;;;;;0.20;0.10;;;8.00;99.90;;;;;;21147828;28;20530;-69
2023/02/19 07:54:23;;;;;;;0.20;0.10;;;8.60;99.90;;;;;;21147345;28;20486;-68
2023/02/19 08:04:26;;;;;;;0.20;0.00;;;9.50;99.90;;;;;;21124418;28;20403;-68
2023/02/19 08:14:32;;;;;;;0.20;0.00;;;10.20;99.90;;;;;;21121983;28;20398;-69
2023/02/19 08:24:38;;;;;;;0.20;0.10;;;10.70;99.90;;;;;;21155884;27;20743;-68
2023/02/19 08:34:43;;;;;;;0.20;0.10;;;11.50;99.90;;;;;;21121550;28;20473;-68
2023/02/19 08:44:47;;;;;;;0.20;0.10;;;12.00;99.90;;;;;;21121488;28;20459;-67
2023/02/19 08:54:52;;;;;;;0.20;0.10;;;12.20;99.90;;;;;;21121438;28;20402;-69
2023/02/19 09:04:56;;;;;;;0.20;0.10;;;12.80;99.90;;;;;;21139123;28;20483;-68
2023/02/19 09:15:01;;;;;;;0.20;0.00;;;13.30;99.90;;;;;;21140839;28;20455;-67
2023/02/19 09:25:06;;;;;;;0.20;0.10;;;13.30;99.90;;;;;;21155034;28;20432;-68
2023/02/19 09:35:11;;;;;;;0.20;0.10;;;13.30;99.90;;;;;;21157401;28;20411;-69
2023/02/19 09:45:19;;;;;;;0.20;0.10;;;13.20;99.90;;;;;;21157016;28;20804;-68
2023/02/19 09:55:31;;;;;;;0.20;0.00;;;13.60;99.90;;;;;;21120419;28;20401;-68
2023/02/19 10:05:35;;;;;;;0.20;0.03;;;13.80;99.90;;;;;;21135790;28;20455;-68
2023/02/19 10:15:46;;;;;;;0.20;0.10;;;13.90;99.90;;;;;;21133226;28;20472;-69
2023/02/19 10:25:55;;;;;;;0.20;0.10;;;14.40;99.90;;;;;;21129483;28;21178;-69
2023/02/19 10:36:04;;;;;;;0.20;0.00;;;15.10;99.90;;;;;;21058220;28;20837;-70
2023/02/19 10:46:17;;;;;;;0.20;0.10;;;16.00;99.90;;;;;;21063395;28;20477;-69
2023/02/19 10:56:27;;;;;;;0.20;0.03;;;16.60;99.90;;;;;;21064505;28;20894;-68
2023/02/19 11:06:31;;;;;;;0.20;0.10;;;16.60;99.90;;;;;;21046554;28;20408;-67
2023/02/19 11:16:42;;;;;;;0.20;0.10;;;16.70;99.90;;;;;;21058912;28;20435;-68
2023/02/19 11:26:46;;;;;;;0.20;0.10;;;16.90;99.90;;;;;;21063899;28;20406;-66
2023/02/19 11:37:08;;;;;;;0.20;0.10;;;17.70;99.90;;;;;;21105475;28;20435;-68
2023/02/19 11:47:35;;;;;;;0.30;0.30;;;18.10;99.90;;;;;;21114092;28;21085;-67
2023/02/19 11:57:44;;;;;;;0.20;0.10;;;18.80;99.90;;;;;;21098924;28;20745;-68
2023/02/19 12:08:29;;;;;;;0.20;0.10;;;18.20;99.90;;;;;;21124190;28;20460;-66
2023/02/19 12:19:02;;;;;;;0.20;0.10;;;18.10;99.90;;;;;;21110795;28;20405;-68
2023/02/19 12:29:26;;;;;;;0.20;0.10;;;18.70;99.90;;;;;;21139012;28;20516;-67
2023/02/19 12:39:45;;;;;;;0.20;0.10;;;19.00;99.90;;;;;;21112950;28;20510;-67
2023/02/19 12:49:56;;;;;;;0.20;0.10;;;19.40;99.90;;;;;;21132687;28;20486;-67
2023/02/19 13:00:07;;;;;;;0.20;0.10;;;19.40;99.90;;;;;;21128708;28;20398;-68
2023/02/19 13:10:25;;;;;;;0.20;0.00;;;20.70;99.90;;;;;;21153703;28;20403;-68
2023/02/19 13:20:32;;;;;;;0.20;0.00;;;20.90;99.90;;;;;;21116875;28;20398;-67
2023/02/19 13:30:57;;;;;;;0.20;0.00;;;20.80;99.90;;;;;;21153021;28;20390;-67
2023/02/19 13:41:02;;;;;;;0.20;0.10;;;21.50;99.90;;;;;;21150335;28;20425;-67
2023/02/19 13:51:46;;;;;;;0.20;0.08;;;20.90;99.90;;;;;;21144578;28;20399;-68
2023/02/19 14:02:34;;;;;;;0.20;0.10;;;20.80;99.90;;;;;;21124929;28;20426;-68
2023/02/19 14:12:39;;;;;;;0.20;0.03;;;20.70;99.90;;;;;;21115609;28;20398;-68
2023/02/19 14:23:09;;;;;;;0.20;0.00;;;20.90;99.90;;;;;;21113636;28;20416;-68
2023/02/19 14:33:17;;;;;;;0.20;0.10;;;20.80;99.90;;;;;;21128166;28;20403;-68
2023/02/19 14:43:24;;;;;;;0.20;0.00;;;20.80;99.90;;;;;;21127939;28;20414;-68
2023/02/19 14:53:33;;;;;;;0.20;0.00;;;20.70;99.90;;;;;;21128513;28;20428;-68
2023/02/19 15:03:40;;;;;;;0.20;0.10;;;21.50;99.90;;;;;;21145442;28;20410;-69
2023/02/19 15:13:50;;;;;;;0.20;0.00;;;22.10;99.90;;;;;;21131982;28;20406;-67
2023/02/19 15:23:55;;;;;;;0.20;0.00;;;21.70;99.90;;;;;;21095424;28;20750;-68
2023/02/19 15:34:01;;;;;;;0.20;0.00;;;21.90;99.90;;;;;;21124670;28;20394;-68
2023/02/19 15:44:20;;;;;;;0.20;0.00;;;20.60;99.90;;;;;;21141458;28;20450;-69
2023/02/19 15:54:30;;;;;;;0.20;0.00;;;20.20;99.90;;;;;;21144016;28;20399;-69
2023/02/19 16:04:35;;;;;;;0.20;0.00;;;19.90;99.90;;;;;;21123450;28;20871;-68
2023/02/19 16:14:40;;;;;;;0.20;0.00;;;20.50;99.90;;;;;;21079223;28;20403;-73
2023/02/19 16:24:47;;;;;;;0.20;0.00;;;20.40;99.90;;;;;;21139152;28;20402;-68
2023/02/19 16:34:53;;;;;;;0.20;0.10;;;19.90;99.90;;;;;;21138460;28;20390;-68
2023/02/19 16:44:56;;;;;;;0.20;0.00;;;18.90;99.90;;;;;;21120512;28;20752;-67
2023/02/19 16:55:02;;;;;;;0.20;0.10;;;18.20;99.90;;;;;;21139236;28;20409;-68
2023/02/19 17:05:06;;;;;;;0.20;0.10;;;16.80;99.90;;;;;;21138826;28;20871;-66
2023/02/19 17:15:12;;;;;;;0.20;0.10;;;16.00;99.90;;;;;;21136245;28;20480;-67
2023/02/19 17:25:16;;;;;;;0.20;0.10;;;15.30;99.90;;;;;;21136474;28;20406;-66
2023/02/19 17:35:21;;;;;;;0.20;0.10;;;14.40;99.90;;;;;;21104340;28;20434;-67
2023/02/19 17:45:25;;;;;;;0.20;0.05;;;13.90;99.90;;;;;;21147765;28;20726;-69
2023/02/19 17:55:30;;;;;;;0.20;0.10;;;14.40;99.90;;;;;;21153168;28;20409;-68
2023/02/19 18:05:34;;;;;;;0.20;0.10;;;13.80;99.90;;;;;;21152518;28;20410;-67
2023/02/19 18:15:40;;;;;;;0.20;0.00;;;12.60;99.90;;;;;;21149934;28;20501;-68
2023/02/19 18:25:44;;;;;;;0.20;0.10;;;12.60;99.90;;;;;;21149381;28;20410;-67
2023/02/19 18:35:49;;;;;;;0.20;0.00;;;12.70;99.90;;;;;;21067360;28;20504;-64
2023/02/19 18:45:53;;;;;;;0.20;0.00;;;12.10;99.90;;;;;;21008177;28;20493;-67
2023/02/19 18:56:00;;;;;;;0.20;0.00;;;12.00;99.90;;;;;;21063039;28;20399;-68
2023/02/19 19:06:05;;;;;;;0.20;0.00;;;12.00;99.90;;;;;;21046187;28;20461;-67
2023/02/19 19:16:10;;;;;;;0.20;0.10;;;11.70;99.90;;;;;;20987388;28;20438;-68
2023/02/19 19:26:14;;;;;;;0.20;0.10;;;11.80;99.90;;;;;;21059224;28;20562;-72
2023/02/19 19:36:22;;;;;;;0.20;0.10;;;11.60;99.90;;;;;;21055987;28;20408;-67
2023/02/19 19:46:27;;;;;;;0.20;0.10;;;11.00;99.90;;;;;;21058542;28;20412;-68
2023/02/19 19:56:32;;;;;;;0.20;0.00;;;11.00;99.90;;;;;;21057860;28;20412;-68
2023/02/19 20:06:36;;;;;;;0.20;0.10;;;10.80;99.90;;;;;;21057419;28;20412;-66
2023/02/19 20:16:42;;;;;;;0.20;0.10;;;11.00;99.90;;;;;;21055306;28;20483;-69
2023/02/19 20:26:47;;;;;;;0.20;0.10;;;10.70;99.90;;;;;;21053218;28;20810;-69
2023/02/19 20:36:52;;;;;;;0.20;0.10;;;10.70;99.90;;;;;;21120710;28;20387;-69
2023/02/19 20:46:58;;;;;;;0.20;0.00;;;10.50;99.90;;;;;;21119942;28;20417;-68
2023/02/19 20:57:05;;;;;;;0.20;0.10;;;10.20;99.90;;;;;;21119979;28;20920;-69
2023/02/19 21:07:09;;;;;;;0.20;0.10;;;10.50;99.90;;;;;;21142677;28;20406;-69
2023/02/19 21:17:16;;;;;;;0.20;0.00;;;10.20;99.90;;;;;;21137260;28;20390;-71
2023/02/19 21:27:21;;;;;;;0.20;0.10;;;10.00;99.90;;;;;;21154091;28;20398;-70
2023/02/19 21:37:26;;;;;;;0.20;0.10;;;10.20;99.90;;;;;;21153065;28;20394;-71
2023/02/19 21:47:30;;;;;;;0.20;0.10;;;10.10;99.90;;;;;;21151304;28;20449;-68
2023/02/19 21:57:36;;;;;;;0.20;0.10;;;10.00;99.90;;;;;;21133008;28;20402;-69
2023/02/19 22:07:40;;;;;;;0.20;0.10;;;10.10;99.90;;;;;;21132148;28;20803;-64
2023/02/19 22:17:45;;;;;;;0.20;0.10;;;9.80;99.90;;;;;;21134000;28;20451;-69
2023/02/19 22:27:49;;;;;;;0.20;0.10;;;9.90;99.90;;;;;;21138608;28;20419;-69
2023/02/19 22:37:54;;;;;;;0.20;0.00;;;9.80;99.90;;;;;;21149903;28;20402;-69
2023/02/19 22:47:58;;;;;;;0.20;0.10;;;10.10;99.90;;;;;;21149063;28;20901;-68
2023/02/19 22:58:03;;;;;;;0.20;0.03;;;9.80;99.90;;;;;;21114577;28;20395;-68
2023/02/19 23:08:07;;;;;;;0.20;0.10;;;9.90;99.90;;;;;;21151390;28;20406;-70
2023/02/19 23:18:12;;;;;;;0.20;0.10;;;9.90;99.90;;;;;;21151631;28;21173;-68
2023/02/19 23:28:16;;;;;;;0.20;0.10;;;9.60;99.90;;;;;;21147036;28;20407;-69
2023/02/19 23:38:21;;;;;;;0.20;0.10;;;9.80;99.90;;;;;;21140492;28;20412;-68
2023/02/19 23:48:25;;;;;;;0.20;0.03;;;9.40;99.90;;;;;;21105878;28;20407;-68
2023/02/19 23:58:30;;;;;;;0.20;0.10;;;9.50;99.90;;;;;;21148933;28;20440;-68
